CheckWX is a tool to help pilots better visualize weather data.  It is not intended as a substitute for an official pre-flight weather briefing.

00:28:50 UTC

KNBT METAR
Bt-11 Bombing Range Airport
Piney Island, North Carolina, USA
Current

33 mins ago

KNBT 202356Z AUTO 19007KT 10SM FEW070 17/12 A2983 RMK AO2 SLP105 T01720122 10211 20172 51003 $
Observed
Apr-20 @ 23:56 UTC
Wind
  • 190° at 7 KTS
Visibility
10 SM
Flight Rules
VFR
Cloud Levels
  • Few at 7,000' AGL
Temperature
17°C / 63°F
Dewpoint
12°C / 54°F
Humidity
73%
Altimeter
29.83" Hg
Pressure
1010.12 hPa
Previous

2 hours ago

KNBT 202256Z AUTO 19010KT 10SM CLR 19/11 A2982 RMK AO2 SLP103 T01890111 $
Observed
Apr-20 @ 22:56 UTC
Wind
  • 190° at 10 KTS
Visibility
10 SM
Flight Rules
VFR
Cloud Levels
  • Clear skies
Temperature
19°C / 66°F
Dewpoint
11°C / 52°F
Humidity
60%
Altimeter
29.82" Hg
Pressure
1009.82 hPa
Previous

3 hours ago

KNBT 202156Z AUTO 19014KT 10SM SCT070 BKN090 19/11 A2983 RMK AO2 SLP106 T01940106 $
Observed
Apr-20 @ 21:56 UTC
Wind
  • 190° at 14 KTS
Visibility
10 SM
Flight Rules
VFR
Cloud Levels
  • Scattered at 7,000' AGL
  • Broken at 9,000' AGL
Temperature
19°C / 66°F
Dewpoint
11°C / 52°F
Humidity
60%
Altimeter
29.83" Hg
Pressure
1010.12 hPa